Time;durP1;ratioP1;P1;durP2;ratioP2;P2;SDS_P1;SDS_P2;PMS_P1;PMS_P2;Temp;Humidity;BMP_temperature;BMP_pressure;BME280_temperature;BME280_humidity;BME280_pressure;Samples;Min_cycle;Max_cycle;Signal;HPM_P1;HPM_P2
2024/03/26 00:01:29;;;;;;;2.53;1.83;;;16.10;59.10;;;;;;5050271;28;20179;-64
2024/03/26 00:03:55;;;;;;;2.08;1.80;;;16.10;59.10;;;;;;5051580;28;20221;-63
2024/03/26 00:06:20;;;;;;;2.75;2.10;;;16.10;59.10;;;;;;5050777;28;20583;-63
2024/03/26 00:08:46;;;;;;;3.67;1.63;;;16.10;59.20;;;;;;5051659;28;20539;-63
2024/03/26 00:11:11;;;;;;;1.88;1.67;;;16.10;59.10;;;;;;5050869;28;20238;-63
2024/03/26 00:13:37;;;;;;;2.63;1.90;;;16.00;59.20;;;;;;5050518;28;20302;-64
2024/03/26 00:16:03;;;;;;;2.20;1.80;;;16.00;59.20;;;;;;5051229;28;20175;-64
2024/03/26 00:18:29;;;;;;;2.67;1.98;;;16.00;59.20;;;;;;5050957;28;20179;-64
2024/03/26 00:20:54;;;;;;;2.15;1.60;;;16.00;59.30;;;;;;5050681;28;20175;-63
2024/03/26 00:23:20;;;;;;;2.17;1.70;;;16.00;59.20;;;;;;5051169;28;20233;-63
2024/03/26 00:25:45;;;;;;;3.22;1.60;;;16.00;59.20;;;;;;5051352;28;20172;-64
2024/03/26 00:28:11;;;;;;;1.88;1.65;;;16.00;59.30;;;;;;5050268;28;20171;-64
2024/03/26 00:30:36;;;;;;;2.47;1.70;;;16.00;59.30;;;;;;5050866;28;20717;-63
2024/03/26 00:33:04;;;;;;;1.60;1.50;;;16.00;59.20;;;;;;5050965;28;20229;-65
2024/03/26 00:35:34;;;;;;;1.80;1.70;;;16.00;59.30;;;;;;5050337;28;20249;-65
2024/03/26 00:38:00;;;;;;;3.05;1.60;;;16.00;59.30;;;;;;5051093;28;20266;-65
2024/03/26 00:40:25;;;;;;;1.73;1.50;;;15.90;59.30;;;;;;5050720;28;20318;-65
2024/03/26 00:42:51;;;;;;;2.08;1.80;;;16.00;59.40;;;;;;5050399;28;20258;-64
2024/03/26 00:45:17;;;;;;;2.10;1.75;;;15.90;59.10;;;;;;5050670;28;20250;-64
2024/03/26 00:47:42;;;;;;;1.67;1.48;;;15.90;59.20;;;;;;5052121;28;20167;-64
2024/03/26 00:50:08;;;;;;;2.72;1.75;;;15.90;59.20;;;;;;5053707;28;20171;-64
2024/03/26 00:52:33;;;;;;;2.58;1.83;;;15.90;59.20;;;;;;5054560;28;20167;-64
2024/03/26 00:54:59;;;;;;;1.88;1.70;;;15.90;59.20;;;;;;5054663;28;20183;-64
2024/03/26 00:57:24;;;;;;;1.85;1.75;;;15.90;59.30;;;;;;5053637;28;20167;-64
2024/03/26 00:59:50;;;;;;;4.00;1.90;;;15.90;59.20;;;;;;5054573;28;20171;-64
2024/03/26 01:02:15;;;;;;;1.83;1.73;;;15.90;59.30;;;;;;5054446;28;20252;-64
2024/03/26 01:04:41;;;;;;;1.85;1.45;;;15.90;59.30;;;;;;5053951;28;20262;-64
2024/03/26 01:07:06;;;;;;;1.92;1.33;;;15.90;59.40;;;;;;5054468;28;20254;-64
2024/03/26 01:09:32;;;;;;;2.53;1.30;;;15.90;59.30;;;;;;5053991;28;20709;-65
2024/03/26 01:11:57;;;;;;;1.98;1.60;;;15.80;59.30;;;;;;5053429;28;20211;-65
2024/03/26 01:14:23;;;;;;;2.40;1.50;;;15.90;59.40;;;;;;5053883;28;20175;-65
2024/03/26 01:16:48;;;;;;;2.13;1.65;;;15.80;59.40;;;;;;5053580;28;20175;-64
2024/03/26 01:19:14;;;;;;;1.83;1.73;;;15.80;59.40;;;;;;5053842;28;20175;-63
2024/03/26 01:21:40;;;;;;;2.17;1.50;;;15.80;59.40;;;;;;5054128;28;20313;-63
2024/03/26 01:24:06;;;;;;;3.35;1.50;;;15.80;59.30;;;;;;5053239;28;20182;-63
2024/03/26 01:26:32;;;;;;;2.40;1.80;;;15.80;59.30;;;;;;5053725;28;20179;-62
2024/03/26 01:28:57;;;;;;;2.42;1.60;;;15.80;59.40;;;;;;5053749;28;20168;-64
2024/03/26 01:31:23;;;;;;;1.73;1.45;;;15.80;59.40;;;;;;5052811;28;20246;-64
2024/03/26 01:33:48;;;;;;;1.60;1.33;;;15.80;59.40;;;;;;5053900;28;20182;-64
2024/03/26 01:36:14;;;;;;;2.22;1.83;;;15.80;59.40;;;;;;5053423;28;20237;-65
2024/03/26 01:38:39;;;;;;;2.95;1.90;;;15.80;59.40;;;;;;5053318;28;20179;-64
2024/03/26 01:41:05;;;;;;;1.60;1.40;;;15.80;59.40;;;;;;5053488;28;20222;-64
2024/03/26 01:43:30;;;;;;;1.98;1.85;;;15.80;59.50;;;;;;5053291;28;20171;-64
2024/03/26 01:45:56;;;;;;;1.92;1.70;;;15.70;59.40;;;;;;5053070;28;20251;-63
2024/03/26 01:48:21;;;;;;;1.63;1.48;;;15.70;59.40;;;;;;5053421;28;20171;-64
2024/03/26 01:50:47;;;;;;;2.63;1.60;;;15.70;59.40;;;;;;5052171;28;20588;-63
2024/03/26 01:53:12;;;;;;;1.95;1.45;;;15.80;59.40;;;;;;5052422;28;20171;-65
2024/03/26 01:55:38;;;;;;;1.70;1.60;;;15.70;59.40;;;;;;5052017;28;20187;-64
2024/03/26 01:58:03;;;;;;;1.60;1.50;;;15.80;59.40;;;;;;5052061;28;20182;-64
2024/03/26 02:00:29;;;;;;;2.38;1.52;;;15.70;59.40;;;;;;5051756;28;20182;-63
2024/03/26 02:02:55;;;;;;;3.10;1.65;;;15.70;59.40;;;;;;5053262;28;20178;-63
2024/03/26 02:05:21;;;;;;;1.88;1.48;;;15.70;59.40;;;;;;5053004;28;20542;-63
2024/03/26 02:07:46;;;;;;;3.35;1.50;;;15.70;59.40;;;;;;5051398;28;20559;-63
2024/03/26 02:10:12;;;;;;;2.67;1.70;;;15.70;59.40;;;;;;5052658;28;20216;-64
2024/03/26 02:12:37;;;;;;;2.28;1.67;;;15.70;59.40;;;;;;5051836;28;20251;-64
2024/03/26 02:15:06;;;;;;;3.22;1.88;;;15.70;59.40;;;;;;5052188;28;20698;-63
2024/03/26 02:17:32;;;;;;;2.95;1.50;;;15.70;59.40;;;;;;5052842;28;20190;-64
2024/03/26 02:19:58;;;;;;;2.30;1.60;;;15.70;59.50;;;;;;5052619;28;20171;-63
2024/03/26 02:22:24;;;;;;;1.88;1.40;;;15.70;59.50;;;;;;5052333;28;20266;-64
2024/03/26 02:24:49;;;;;;;2.50;1.70;;;15.70;60.10;;;;;;5052834;28;20313;-63
2024/03/26 02:27:15;;;;;;;3.33;1.63;;;15.60;59.50;;;;;;5051644;28;20308;-62
2024/03/26 02:29:40;;;;;;;2.85;1.70;;;15.70;59.50;;;;;;5052893;28;20177;-63
2024/03/26 02:32:06;;;;;;;2.10;1.50;;;15.60;59.40;;;;;;5052707;28;20211;-64
2024/03/26 02:34:34;;;;;;;2.03;1.80;;;15.60;59.50;;;;;;5051666;28;20545;-65
2024/03/26 02:37:00;;;;;;;3.20;1.80;;;15.60;59.40;;;;;;5052526;28;20210;-64
2024/03/26 02:39:25;;;;;;;2.10;1.75;;;15.60;59.50;;;;;;5052202;28;20633;-64
2024/03/26 02:41:51;;;;;;;2.20;1.50;;;15.60;59.40;;;;;;5051382;28;20231;-65
2024/03/26 02:44:16;;;;;;;1.98;1.50;;;15.60;59.40;;;;;;5052379;28;20171;-66
2024/03/26 02:46:42;;;;;;;1.95;1.60;;;15.60;59.50;;;;;;5052615;28;20175;-63
2024/03/26 02:49:07;;;;;;;1.98;1.55;;;15.60;59.50;;;;;;5051579;28;20167;-65
2024/03/26 02:51:33;;;;;;;2.25;1.77;;;15.60;59.50;;;;;;5052327;28;20218;-65
2024/03/26 02:53:58;;;;;;;3.22;1.83;;;15.60;59.50;;;;;;5052200;28;20178;-66
2024/03/26 02:56:24;;;;;;;2.40;1.60;;;15.60;59.50;;;;;;5051250;28;20183;-66
2024/03/26 02:58:49;;;;;;;2.13;1.60;;;15.60;59.50;;;;;;5052463;28;20167;-65
2024/03/26 03:01:18;;;;;;;2.08;1.58;;;15.60;59.50;;;;;;5051910;28;20175;-65
2024/03/26 03:03:43;;;;;;;1.77;1.40;;;15.60;59.50;;;;;;5051641;28;20205;-65
2024/03/26 03:06:09;;;;;;;1.70;1.60;;;15.50;59.50;;;;;;5051804;28;20220;-65
2024/03/26 03:08:35;;;;;;;4.25;1.83;;;15.50;59.50;;;;;;5052102;28;20663;-65
2024/03/26 03:11:00;;;;;;;1.50;1.40;;;15.50;59.50;;;;;;5051100;28;20202;-65
2024/03/26 03:13:26;;;;;;;1.98;1.75;;;15.50;59.50;;;;;;5051876;28;20194;-65
2024/03/26 03:15:51;;;;;;;1.65;1.55;;;15.60;59.50;;;;;;5052071;28;20178;-65
2024/03/26 03:18:17;;;;;;;1.58;1.48;;;15.60;59.50;;;;;;5051084;28;20250;-66
2024/03/26 03:20:43;;;;;;;1.35;1.25;;;15.50;59.50;;;;;;5051801;28;20533;-64
2024/03/26 03:23:08;;;;;;;2.08;1.42;;;15.50;59.50;;;;;;5051446;28;20179;-65
2024/03/26 03:25:34;;;;;;;2.28;1.60;;;15.50;59.50;;;;;;5051073;28;20167;-64
2024/03/26 03:27:59;;;;;;;1.67;1.55;;;15.50;59.50;;;;;;5051892;28;20349;-64
2024/03/26 03:30:25;;;;;;;3.35;1.60;;;15.50;59.50;;;;;;5050957;28;20202;-65
2024/03/26 03:32:50;;;;;;;2.28;1.60;;;15.50;59.60;;;;;;5051803;28;20187;-65
2024/03/26 03:35:17;;;;;;;2.42;1.52;;;15.50;59.60;;;;;;5051504;28;20171;-66
2024/03/26 03:37:43;;;;;;;2.47;1.90;;;15.50;59.60;;;;;;5051160;28;20179;-65
2024/03/26 03:40:08;;;;;;;2.47;1.70;;;15.50;60.30;;;;;;5050922;28;20704;-66
2024/03/26 03:42:34;;;;;;;1.75;1.42;;;15.50;59.60;;;;;;5051557;28;20174;-66
2024/03/26 03:45:00;;;;;;;2.10;1.80;;;15.50;59.60;;;;;;5050681;28;20205;-65
2024/03/26 03:47:25;;;;;;;3.03;1.98;;;15.50;59.60;;;;;;5051343;28;20170;-65
2024/03/26 03:49:51;;;;;;;3.58;2.05;;;15.50;59.60;;;;;;5051574;28;20199;-65
2024/03/26 03:52:16;;;;;;;2.85;1.83;;;15.40;59.60;;;;;;5050469;28;20781;-66
2024/03/26 03:54:42;;;;;;;3.08;1.40;;;15.40;59.60;;;;;;5051330;28;20264;-65
2024/03/26 03:57:07;;;;;;;1.88;1.67;;;15.40;59.60;;;;;;5051527;28;20181;-66
2024/03/26 03:59:33;;;;;;;2.13;1.58;;;15.40;59.60;;;;;;5050860;28;20178;-66
2024/03/26 04:01:58;;;;;;;1.85;1.55;;;15.40;59.60;;;;;;5051561;28;20555;-65
2024/03/26 04:04:24;;;;;;;1.80;1.40;;;15.40;59.60;;;;;;5051214;28;20641;-65
2024/03/26 04:06:49;;;;;;;2.47;1.75;;;15.40;59.60;;;;;;5050731;28;20324;-65
2024/03/26 04:09:15;;;;;;;2.22;1.70;;;15.40;59.60;;;;;;5051075;28;20649;-65
2024/03/26 04:11:40;;;;;;;1.60;1.50;;;15.40;59.60;;;;;;5051186;28;20752;-66
2024/03/26 04:14:06;;;;;;;2.13;1.70;;;15.40;59.60;;;;;;5050612;28;20267;-65
2024/03/26 04:16:31;;;;;;;1.83;1.70;;;15.40;59.60;;;;;;5051242;28;20270;-65
2024/03/26 04:18:57;;;;;;;2.20;1.55;;;15.40;59.60;;;;;;5051307;28;20263;-65
2024/03/26 04:21:22;;;;;;;1.70;1.52;;;15.40;59.60;;;;;;5050280;28;20266;-65
2024/03/26 04:23:48;;;;;;;2.40;1.67;;;15.40;59.60;;;;;;5054072;28;20167;-64
2024/03/26 04:26:13;;;;;;;1.70;1.60;;;15.40;59.70;;;;;;5054652;28;20232;-64
2024/03/26 04:28:39;;;;;;;1.75;1.40;;;15.40;59.70;;;;;;5054657;28;20172;-65
2024/03/26 04:31:04;;;;;;;4.30;1.77;;;15.30;59.60;;;;;;5054976;28;20199;-65
2024/03/26 04:33:30;;;;;;;1.45;1.35;;;15.40;59.60;;;;;;5054698;28;20183;-66
2024/03/26 04:35:55;;;;;;;1.65;1.52;;;15.40;59.70;;;;;;5054285;28;20173;-65
2024/03/26 04:38:21;;;;;;;1.65;1.55;;;15.40;59.70;;;;;;5054584;28;20526;-65
2024/03/26 04:40:46;;;;;;;1.50;1.40;;;15.30;60.30;;;;;;5053951;28;20253;-64
2024/03/26 04:43:12;;;;;;;1.90;1.60;;;15.30;59.60;;;;;;5054405;28;20176;-64
2024/03/26 04:45:38;;;;;;;1.80;1.40;;;15.30;59.60;;;;;;5054637;28;20167;-64
2024/03/26 04:48:04;;;;;;;2.60;1.52;;;15.40;59.70;;;;;;5053944;28;20175;-65
2024/03/26 04:50:30;;;;;;;1.80;1.20;;;15.30;59.70;;;;;;5054286;28;20179;-65
2024/03/26 04:52:55;;;;;;;2.00;1.50;;;15.30;60.30;;;;;;5054461;28;20552;-64
2024/03/26 04:55:21;;;;;;;3.47;1.60;;;15.30;59.70;;;;;;5053443;28;20178;-64
2024/03/26 04:57:46;;;;;;;2.15;1.42;;;15.30;59.70;;;;;;5054519;28;20589;-65
2024/03/26 05:00:13;;;;;;;2.08;1.40;;;15.30;59.70;;;;;;5054092;28;20167;-65
2024/03/26 05:02:39;;;;;;;2.38;1.70;;;15.30;59.70;;;;;;5053921;28;20171;-64
2024/03/26 05:05:05;;;;;;;1.88;1.25;;;15.30;59.70;;;;;;5054266;28;20232;-64
2024/03/26 05:07:32;;;;;;;2.95;1.80;;;15.30;59.70;;;;;;5053718;28;20751;-65
2024/03/26 05:09:57;;;;;;;1.58;1.48;;;15.30;59.70;;;;;;5053393;28;20240;-64
2024/03/26 05:12:23;;;;;;;2.10;1.65;;;15.30;59.70;;;;;;5053771;28;20685;-64
2024/03/26 05:14:48;;;;;;;2.28;1.42;;;15.30;59.70;;;;;;5054407;28;20179;-64
2024/03/26 05:17:14;;;;;;;1.55;1.40;;;15.30;59.70;;;;;;5052948;28;20656;-65
2024/03/26 05:19:39;;;;;;;2.22;1.48;;;15.30;59.70;;;;;;5054213;28;20190;-64
2024/03/26 05:22:05;;;;;;;2.25;1.88;;;15.30;59.70;;;;;;5053894;28;20178;-64
2024/03/26 05:24:31;;;;;;;2.00;1.52;;;15.30;59.70;;;;;;5052886;28;20168;-64
2024/03/26 05:26:57;;;;;;;1.77;1.67;;;15.20;59.70;;;;;;5053841;28;20167;-63
2024/03/26 05:29:22;;;;;;;1.70;1.42;;;15.20;59.60;;;;;;5053754;28;20179;-64
2024/03/26 05:31:48;;;;;;;2.22;1.73;;;15.30;59.70;;;;;;5053241;28;20210;-64
2024/03/26 05:34:14;;;;;;;1.75;1.52;;;15.30;59.80;;;;;;5052332;28;20229;-65
2024/03/26 05:36:39;;;;;;;2.10;1.90;;;15.20;59.60;;;;;;5053804;28;20646;-64
2024/03/26 05:39:05;;;;;;;1.70;1.15;;;15.20;59.70;;;;;;5052879;28;20172;-64
2024/03/26 05:41:31;;;;;;;2.08;1.40;;;15.20;59.60;;;;;;5053394;28;20226;-64
2024/03/26 05:43:57;;;;;;;2.25;1.70;;;15.20;59.70;;;;;;5052984;28;20175;-64
2024/03/26 05:46:22;;;;;;;2.50;1.65;;;15.20;59.60;;;;;;5053627;28;20187;-65
2024/03/26 05:48:48;;;;;;;2.13;1.40;;;15.20;59.70;;;;;;5053853;28;20614;-64
2024/03/26 05:51:13;;;;;;;2.08;1.50;;;15.20;59.60;;;;;;5052346;28;20665;-64
2024/03/26 05:53:39;;;;;;;2.70;1.70;;;15.20;59.60;;;;;;5053590;28;20175;-65
2024/03/26 05:56:05;;;;;;;2.28;1.70;;;15.30;59.60;;;;;;5053660;28;20221;-64
2024/03/26 05:58:30;;;;;;;1.80;1.33;;;15.30;59.40;;;;;;5052287;28;20229;-65
2024/03/26 06:00:56;;;;;;;3.30;1.42;;;15.30;59.40;;;;;;5053429;28;20286;-64
2024/03/26 06:03:21;;;;;;;2.38;1.52;;;15.40;59.30;;;;;;5051684;28;20680;-64
2024/03/26 06:05:47;;;;;;;1.65;1.55;;;15.40;59.10;;;;;;5052620;28;20183;-65
2024/03/26 06:08:12;;;;;;;2.20;1.60;;;15.50;59.10;;;;;;5052773;28;20175;-65
2024/03/26 06:10:38;;;;;;;2.05;1.52;;;15.50;59.00;;;;;;5053274;28;20199;-64
2024/03/26 06:13:03;;;;;;;1.60;1.45;;;15.60;58.80;;;;;;5052551;28;20171;-64
2024/03/26 06:15:29;;;;;;;1.40;1.30;;;15.60;58.80;;;;;;5052746;28;20171;-64
2024/03/26 06:17:54;;;;;;;1.77;1.50;;;15.60;58.70;;;;;;5052813;28;20274;-64
2024/03/26 06:20:20;;;;;;;2.30;1.70;;;15.50;58.50;;;;;;5052073;28;20224;-64
2024/03/26 06:22:45;;;;;;;2.40;1.42;;;15.50;58.50;;;;;;5052875;28;20181;-63
2024/03/26 06:25:11;;;;;;;2.72;1.92;;;15.60;58.60;;;;;;5052724;28;20258;-63
2024/03/26 06:27:37;;;;;;;1.73;1.60;;;15.50;58.50;;;;;;5052370;28;20258;-63
2024/03/26 06:30:03;;;;;;;1.83;1.42;;;15.50;58.60;;;;;;5052647;28;20262;-64
2024/03/26 06:32:29;;;;;;;2.22;1.40;;;15.50;58.60;;;;;;5052455;28;20219;-65
2024/03/26 06:34:54;;;;;;;1.30;1.30;;;15.60;58.60;;;;;;5052099;28;20194;-64
2024/03/26 06:37:20;;;;;;;1.98;1.35;;;15.60;58.60;;;;;;5052254;28;20179;-64
2024/03/26 06:39:45;;;;;;;2.25;1.48;;;15.60;58.60;;;;;;5052623;28;20245;-65
2024/03/26 06:42:11;;;;;;;1.40;1.30;;;15.70;58.50;;;;;;5051361;28;20638;-65
2024/03/26 06:44:36;;;;;;;2.28;1.52;;;15.70;58.40;;;;;;5052729;28;20187;-65
2024/03/26 06:47:02;;;;;;;1.98;1.50;;;15.70;58.40;;;;;;5052096;28;20175;-64
2024/03/26 06:49:28;;;;;;;2.08;1.50;;;15.70;58.40;;;;;;5051315;28;20175;-65
2024/03/26 06:51:53;;;;;;;1.75;1.45;;;15.70;58.30;;;;;;5052207;28;20567;-66
2024/03/26 06:54:18;;;;;;;1.67;1.33;;;15.70;58.90;;;;;;5051330;28;20637;-66
2024/03/26 06:56:44;;;;;;;1.98;1.45;;;15.80;58.40;;;;;;5052269;28;20179;-65
2024/03/26 06:59:10;;;;;;;1.40;1.30;;;15.80;58.40;;;;;;5052106;28;20179;-65
2024/03/26 07:01:35;;;;;;;1.63;1.30;;;15.90;58.40;;;;;;5051679;28;20186;-65
2024/03/26 07:04:01;;;;;;;1.52;1.20;;;16.10;58.30;;;;;;5052287;28;20216;-65
2024/03/26 07:06:29;;;;;;;1.10;1.08;;;16.20;58.20;;;;;;5051917;28;20257;-66
2024/03/26 07:08:55;;;;;;;1.67;1.35;;;16.40;58.00;;;;;;5051645;28;20208;-67
2024/03/26 07:11:21;;;;;;;1.27;1.10;;;16.50;57.80;;;;;;5051772;28;20269;-66
2024/03/26 07:13:47;;;;;;;1.73;1.25;;;16.70;57.60;;;;;;5052162;28;20192;-65
2024/03/26 07:16:13;;;;;;;1.08;1.08;;;16.80;57.50;;;;;;5051073;28;20262;-65
2024/03/26 07:18:39;;;;;;;1.20;1.10;;;16.90;57.20;;;;;;5052069;28;20392;-65
2024/03/26 07:21:05;;;;;;;1.08;1.02;;;17.00;57.00;;;;;;5051657;28;20601;-65
2024/03/26 07:23:31;;;;;;;1.40;1.10;;;17.10;56.90;;;;;;5051134;28;20175;-65
2024/03/26 07:25:56;;;;;;;1.33;1.10;;;17.20;56.70;;;;;;5052035;28;20178;-64
2024/03/26 07:28:22;;;;;;;2.30;0.95;;;17.30;56.50;;;;;;5051404;28;20186;-65
2024/03/26 07:30:47;;;;;;;2.13;1.25;;;17.40;56.40;;;;;;5051089;28;20206;-65
2024/03/26 07:33:13;;;;;;;1.45;1.17;;;17.40;56.40;;;;;;5051400;28;20175;-66
2024/03/26 07:35:39;;;;;;;1.50;1.17;;;17.30;56.50;;;;;;5051660;28;20168;-66
2024/03/26 07:38:05;;;;;;;1.75;1.00;;;17.30;56.40;;;;;;5051199;28;20191;-65
2024/03/26 07:40:30;;;;;;;1.05;0.90;;;17.30;56.40;;;;;;5051343;28;20302;-65
2024/03/26 07:42:56;;;;;;;1.30;1.20;;;17.40;56.50;;;;;;5051562;28;20618;-65
2024/03/26 07:45:21;;;;;;;1.40;1.10;;;17.40;56.50;;;;;;5050797;28;20179;-65
2024/03/26 07:47:47;;;;;;;1.42;1.30;;;17.40;56.30;;;;;;5051548;28;20190;-65
2024/03/26 07:50:13;;;;;;;1.63;1.30;;;17.40;56.40;;;;;;5051054;28;20229;-68
2024/03/26 07:52:38;;;;;;;3.22;1.48;;;17.40;56.50;;;;;;5050902;28;20218;-67
2024/03/26 07:55:04;;;;;;;1.52;1.33;;;17.40;56.70;;;;;;5051428;28;20198;-67
2024/03/26 07:57:29;;;;;;;3.40;1.65;;;17.40;56.80;;;;;;5052043;28;20528;-68
2024/03/26 07:59:55;;;;;;;2.22;1.00;;;17.50;56.70;;;;;;5054790;28;20218;-67
2024/03/26 08:02:21;;;;;;;1.85;1.10;;;17.60;56.60;;;;;;5055230;28;20578;-67
2024/03/26 08:04:48;;;;;;;2.08;1.20;;;17.60;56.60;;;;;;5054867;28;20186;-67
2024/03/26 08:07:14;;;;;;;6.88;1.23;;;17.70;56.60;;;;;;5054802;28;20649;-67
2024/03/26 08:09:39;;;;;;;3.08;1.50;;;17.70;56.40;;;;;;5055164;28;20191;-66
2024/03/26 08:12:05;;;;;;;1.60;1.30;;;17.70;56.40;;;;;;5054238;28;20222;-66
2024/03/26 08:14:31;;;;;;;1.88;1.30;;;17.70;56.50;;;;;;5054926;28;20167;-67
2024/03/26 08:16:56;;;;;;;3.10;1.30;;;17.70;56.50;;;;;;5055136;28;20186;-67
2024/03/26 08:19:22;;;;;;;1.88;1.30;;;17.70;56.50;;;;;;5054092;28;20179;-67
2024/03/26 08:21:47;;;;;;;2.80;1.30;;;17.70;56.50;;;;;;5055389;28;20174;-71
2024/03/26 08:24:13;;;;;;;2.85;1.40;;;17.70;56.60;;;;;;5054961;28;20167;-69
2024/03/26 08:26:38;;;;;;;3.25;1.85;;;17.70;56.20;;;;;;5054508;28;20198;-67
2024/03/26 08:29:04;;;;;;;5.22;1.73;;;17.70;55.60;;;;;;5055125;28;20198;-67
2024/03/26 08:31:29;;;;;;;2.47;1.80;;;17.60;55.40;;;;;;5054675;28;20634;-68
2024/03/26 08:33:55;;;;;;;3.50;1.90;;;17.50;55.40;;;;;;5054083;28;20618;-67
2024/03/26 08:36:22;;;;;;;2.38;1.55;;;17.50;55.60;;;;;;5054906;28;20179;-68
2024/03/26 08:38:48;;;;;;;2.42;1.70;;;17.40;55.70;;;;;;5055075;28;20205;-67
2024/03/26 08:41:14;;;;;;;3.63;1.63;;;17.40;55.90;;;;;;5053551;28;20235;-68
2024/03/26 08:43:40;;;;;;;2.40;1.73;;;17.20;56.00;;;;;;5054998;28;20402;-67
2024/03/26 08:46:05;;;;;;;3.28;1.80;;;17.20;56.10;;;;;;5054757;28;20547;-67
2024/03/26 08:48:31;;;;;;;2.60;1.70;;;17.10;56.40;;;;;;5053753;28;20167;-68
2024/03/26 08:50:56;;;;;;;2.47;1.30;;;17.00;56.50;;;;;;5054778;28;20206;-67
2024/03/26 08:53:22;;;;;;;3.13;1.60;;;17.00;56.50;;;;;;5054423;28;20182;-68
2024/03/26 08:55:49;;;;;;;2.72;1.60;;;17.10;56.60;;;;;;5053917;28;20541;-68
2024/03/26 08:58:14;;;;;;;2.08;1.60;;;17.10;56.60;;;;;;5054243;28;20258;-68
2024/03/26 09:00:40;;;;;;;1.85;1.65;;;17.10;56.80;;;;;;5054626;28;20309;-68
2024/03/26 09:03:05;;;;;;;1.65;1.50;;;17.10;56.60;;;;;;5053803;28;20301;-67
2024/03/26 09:05:31;;;;;;;3.33;1.50;;;17.00;56.60;;;;;;5054251;28;20171;-68
2024/03/26 09:07:57;;;;;;;2.53;1.55;;;17.00;56.60;;;;;;5053685;28;20179;-68
2024/03/26 09:10:22;;;;;;;1.60;1.50;;;17.00;56.70;;;;;;5053898;28;20190;-68
2024/03/26 09:12:48;;;;;;;1.63;1.50;;;17.00;56.70;;;;;;5054336;28;20210;-67
2024/03/26 09:15:13;;;;;;;2.97;1.42;;;16.90;56.70;;;;;;5053201;28;20171;-67
2024/03/26 09:17:39;;;;;;;1.58;1.30;;;16.90;56.90;;;;;;5054034;28;20175;-67
2024/03/26 09:20:05;;;;;;;2.85;1.55;;;16.90;57.00;;;;;;5053822;28;20171;-67
2024/03/26 09:22:31;;;;;;;2.25;1.58;;;16.90;56.90;;;;;;5053280;28;20167;-68
2024/03/26 09:24:57;;;;;;;1.50;1.20;;;17.00;57.00;;;;;;5053807;28;20661;-67
2024/03/26 09:27:23;;;;;;;1.80;1.58;;;17.00;57.00;;;;;;5053788;28;20179;-67
2024/03/26 09:29:48;;;;;;;2.42;1.63;;;17.00;56.90;;;;;;5053158;28;20270;-67
2024/03/26 09:32:14;;;;;;;3.83;1.75;;;17.00;57.00;;;;;;5053226;28;20206;-68
2024/03/26 09:34:39;;;;;;;4.20;1.75;;;17.00;57.00;;;;;;5053808;28;20181;-67
2024/03/26 09:37:06;;;;;;;1.60;1.50;;;16.90;57.00;;;;;;5052943;28;20171;-67
2024/03/26 09:39:33;;;;;;;2.58;1.83;;;16.90;57.10;;;;;;5053508;28;20203;-68
2024/03/26 09:41:58;;;;;;;4.18;1.50;;;16.90;57.20;;;;;;5053400;28;20259;-67
2024/03/26 09:44:27;;;;;;;4.47;2.20;;;16.90;57.20;;;;;;5051356;28;20648;-68
2024/03/26 09:46:52;;;;;;;2.17;1.73;;;16.90;57.30;;;;;;5052301;28;20179;-66
2024/03/26 09:49:21;;;;;;;3.13;1.70;;;16.80;57.30;;;;;;5052281;28;20178;-67
2024/03/26 09:51:47;;;;;;;2.40;1.55;;;16.90;57.90;;;;;;5051552;28;20336;-67
2024/03/26 09:54:12;;;;;;;2.20;1.88;;;16.90;57.20;;;;;;5053221;28;20233;-68
2024/03/26 09:56:38;;;;;;;2.45;1.50;;;16.90;57.10;;;;;;5052290;28;20586;-68
2024/03/26 09:59:06;;;;;;;2.15;1.42;;;16.90;57.20;;;;;;5052751;28;20717;-67
2024/03/26 10:01:33;;;;;;;1.70;1.60;;;16.90;57.10;;;;;;5050760;28;20202;-67
2024/03/26 10:03:58;;;;;;;3.38;1.90;;;16.90;57.10;;;;;;5053143;28;20654;-67
2024/03/26 10:06:25;;;;;;;1.92;1.65;;;16.90;57.20;;;;;;5052227;28;20217;-68
2024/03/26 10:08:51;;;;;;;1.90;1.80;;;16.90;57.30;;;;;;5053113;28;20669;-68
2024/03/26 10:11:18;;;;;;;2.65;2.00;;;16.90;57.30;;;;;;5052231;28;20210;-68
2024/03/26 10:13:43;;;;;;;2.55;1.50;;;16.90;57.50;;;;;;5053115;28;20206;-68
2024/03/26 10:16:09;;;;;;;2.22;1.67;;;16.80;57.50;;;;;;5052482;28;20224;-67
2024/03/26 10:18:34;;;;;;;2.40;1.58;;;16.80;57.50;;;;;;5052559;28;20179;-68
2024/03/26 10:21:02;;;;;;;1.83;1.73;;;17.10;57.90;;;;;;5052352;28;20177;-67
2024/03/26 10:23:27;;;;;;;3.10;1.77;;;16.70;57.80;;;;;;5052750;28;20693;-66
2024/03/26 10:25:53;;;;;;;3.28;2.20;;;16.70;57.80;;;;;;5052060;28;20656;-66
2024/03/26 10:28:22;;;;;;;1.83;1.70;;;16.80;57.20;;;;;;5052498;28;20269;-67
2024/03/26 10:30:48;;;;;;;3.17;1.70;;;16.70;57.20;;;;;;5052908;28;20171;-66
2024/03/26 10:33:13;;;;;;;2.58;1.70;;;16.70;57.40;;;;;;5050304;28;20649;-67
2024/03/26 10:35:39;;;;;;;1.98;1.77;;;16.80;57.50;;;;;;5051536;28;20217;-68
2024/03/26 10:38:04;;;;;;;2.10;1.50;;;17.10;57.60;;;;;;5051388;28;20225;-67
2024/03/26 10:40:31;;;;;;;1.73;1.60;;;16.80;57.50;;;;;;5050148;28;20226;-69
2024/03/26 10:43:00;;;;;;;2.55;1.58;;;16.80;57.50;;;;;;5052294;28;20175;-69
2024/03/26 10:45:26;;;;;;;2.95;1.73;;;16.80;57.50;;;;;;5051301;28;20183;-65
2024/03/26 10:47:55;;;;;;;2.55;1.92;;;16.80;57.70;;;;;;5050338;28;20182;-64
2024/03/26 10:50:20;;;;;;;1.92;1.73;;;16.70;57.60;;;;;;5051839;28;20182;-66
2024/03/26 10:52:47;;;;;;;1.83;1.52;;;16.80;57.80;;;;;;5051885;28;20210;-65
2024/03/26 10:55:13;;;;;;;2.40;1.73;;;16.70;57.70;;;;;;5051023;28;20643;-65
2024/03/26 10:57:40;;;;;;;2.47;1.60;;;16.70;57.70;;;;;;5051969;28;20171;-66
2024/03/26 11:00:12;;;;;;;2.65;1.75;;;16.70;57.80;;;;;;5050948;28;20190;-66
2024/03/26 11:02:49;;;;;;;3.00;1.70;;;16.70;57.60;;;;;;5050358;28;20175;-65
2024/03/26 11:05:14;;;;;;;2.05;1.52;;;16.80;57.70;;;;;;5050495;28;20190;-64
2024/03/26 11:07:42;;;;;;;1.75;1.55;;;16.80;57.70;;;;;;5051355;28;20179;-67
2024/03/26 11:10:11;;;;;;;2.00;1.67;;;16.80;57.50;;;;;;5051888;28;20179;-67
2024/03/26 11:12:36;;;;;;;3.05;1.48;;;16.80;57.60;;;;;;5051574;28;20223;-66
2024/03/26 11:15:11;;;;;;;2.03;1.60;;;16.80;57.70;;;;;;5051214;28;20699;-66
2024/03/26 11:17:51;;;;;;;2.42;1.80;;;16.80;57.70;;;;;;5051988;28;20186;-66
2024/03/26 11:20:16;;;;;;;2.22;2.03;;;16.80;57.50;;;;;;5051795;28;20166;-66
2024/03/26 11:22:42;;;;;;;1.65;1.50;;;16.80;57.40;;;;;;5050896;28;20649;-66
2024/03/26 11:25:08;;;;;;;2.40;1.90;;;16.80;57.40;;;;;;5051699;28;20308;-65
2024/03/26 11:27:34;;;;;;;3.47;1.70;;;16.80;57.30;;;;;;5051681;28;20250;-65
2024/03/26 11:30:00;;;;;;;3.08;1.75;;;16.80;57.30;;;;;;5051094;28;20178;-65
2024/03/26 11:32:27;;;;;;;2.53;1.80;;;16.80;57.40;;;;;;5050249;28;20298;-66
2024/03/26 11:35:11;;;;;;;3.03;2.03;;;16.80;57.40;;;;;;5050362;28;20171;-67
2024/03/26 11:37:39;;;;;;;2.85;1.77;;;16.80;57.30;;;;;;5051009;28;20697;-67
2024/03/26 11:40:06;;;;;;;2.65;1.77;;;16.80;57.40;;;;;;5051403;28;20238;-66
2024/03/26 11:42:31;;;;;;;2.75;1.75;;;16.80;57.50;;;;;;5050033;28;20187;-66
2024/03/26 11:45:05;;;;;;;2.88;2.00;;;16.80;57.50;;;;;;5049638;28;20179;-65
2024/03/26 11:47:50;;;;;;;2.90;1.88;;;16.80;57.50;;;;;;5051476;28;20179;-66
2024/03/26 11:50:17;;;;;;;2.78;2.20;;;16.80;57.60;;;;;;5049374;28;20754;-66
2024/03/26 11:52:42;;;;;;;2.10;1.73;;;16.70;57.50;;;;;;5051444;28;20305;-66
2024/03/26 11:55:08;;;;;;;3.10;1.70;;;16.80;57.60;;;;;;5051405;28;20265;-66
2024/03/26 11:57:37;;;;;;;2.65;1.75;;;16.80;57.60;;;;;;5050878;28;20175;-67
2024/03/26 12:00:04;;;;;;;3.45;1.75;;;16.80;57.50;;;;;;5051451;28;20175;-67
2024/03/26 12:02:30;;;;;;;2.83;1.70;;;16.80;57.60;;;;;;5051079;28;20179;-66
2024/03/26 12:04:56;;;;;;;1.92;1.65;;;16.80;57.50;;;;;;5050475;28;20178;-66
2024/03/26 12:07:23;;;;;;;2.20;1.75;;;16.90;57.50;;;;;;5051143;28;20242;-67
2024/03/26 12:09:49;;;;;;;2.33;1.80;;;16.90;57.50;;;;;;5050244;28;20175;-67
2024/03/26 12:12:14;;;;;;;2.53;1.60;;;17.30;57.80;;;;;;5049014;28;20240;-68
2024/03/26 12:14:40;;;;;;;1.73;1.50;;;17.00;57.60;;;;;;5051385;28;20217;-66
2024/03/26 12:17:06;;;;;;;2.97;1.95;;;17.00;57.60;;;;;;5049971;28;20183;-66
2024/03/26 12:19:32;;;;;;;1.75;1.60;;;16.90;57.50;;;;;;5050496;28;20178;-67
2024/03/26 12:21:58;;;;;;;4.40;1.83;;;16.90;57.60;;;;;;5051279;28;20206;-68
2024/03/26 12:24:24;;;;;;;1.85;1.55;;;16.90;57.70;;;;;;5050522;28;20211;-68
2024/03/26 12:26:50;;;;;;;2.58;1.92;;;16.90;57.80;;;;;;5050730;28;20175;-67
2024/03/26 12:29:15;;;;;;;2.67;1.70;;;16.90;57.80;;;;;;5050970;28;20259;-66
2024/03/26 12:31:41;;;;;;;2.45;1.70;;;17.00;57.90;;;;;;5049992;28;20302;-67
2024/03/26 12:34:10;;;;;;;2.53;1.67;;;16.90;57.80;;;;;;5049629;28;20180;-66
2024/03/26 12:36:36;;;;;;;2.88;1.90;;;16.90;57.80;;;;;;5051517;28;20271;-68
2024/03/26 12:39:06;;;;;;;2.35;1.95;;;16.90;57.60;;;;;;5050444;28;20258;-67
2024/03/26 12:41:33;;;;;;;3.97;1.95;;;16.90;58.20;;;;;;5050580;28;20705;-66